Wanda, Nebraska
Current Conditions -  °F | °C
As of 6:14 AM on Sunday 23 Nov 2014 (Local Time) from KHSI Reporting Station
Haze Haze  
Wind Chill: 37°   Ceiling: 1400
Heat Index: 42°   Visibility: 0.75mi
Dew Point: 40°   Wind: 8mph
Humidity: 92%   Direction: 290°WNW
Pressure: 29.48"   Gusts: NA
Location:  40.6115°N, 98.6672°W
Report Text: KHSI 231214Z AUTO 29007KT 3/4SM BR SCT004 OVC014 06/04 A2948 RMK AO2 PRESRR T00560044
Loading
Personal Weather Stations






























Interactive Weather Map New forecast layout! Learn more

10-Day Weather Forecast

Advertisements
Track Severe Weather on mobile